sensor_id;sensor_type;location;lat;lon;timestamp;pressure;altitude;pressure_sealevel;temperature;humidity
54439;BME280;40347;53.848;27.498;2023-02-19T00:01:22;996.4;;;3.5;63
54439;BME280;40347;53.848;27.498;2023-02-19T00:06:22;996.4;;;3.4;63.3
54439;BME280;40347;53.848;27.498;2023-02-19T00:11:17;996.4;;;3.3;63.7
54439;BME280;40347;53.848;27.498;2023-02-19T00:16:22;996.5;;;3.2;64.1
54439;BME280;40347;53.848;27.498;2023-02-19T00:21:20;996.5;;;3.1;64.2
54439;BME280;40347;53.848;27.498;2023-02-19T00:26:34;996.5;;;3;64.4
54439;BME280;40347;53.848;27.498;2023-02-19T00:31:15;996.5;;;3;64.7
54439;BME280;40347;53.848;27.498;2023-02-19T00:36:14;996.6;;;2.9;65
54439;BME280;40347;53.848;27.498;2023-02-19T00:41:08;996.7;;;2.9;65.1
54439;BME280;40347;53.848;27.498;2023-02-19T00:46:08;996.6;;;3;65
54439;BME280;40347;53.848;27.498;2023-02-19T00:51:35;996.6;;;3.1;65
54439;BME280;40347;53.848;27.498;2023-02-19T00:56:22;996.5;;;3.3;64.5
54439;BME280;40347;53.848;27.498;2023-02-19T01:01:22;996.6;;;3.4;64.2
54439;BME280;40347;53.848;27.498;2023-02-19T01:06:34;996.6;;;3.4;64.2
54439;BME280;40347;53.848;27.498;2023-02-19T01:11:08;996.7;;;3.3;64.4
54439;BME280;40347;53.848;27.498;2023-02-19T01:16:22;996.8;;;3.3;64.5
54439;BME280;40347;53.848;27.498;2023-02-19T01:21:09;996.8;;;3.3;64.2
54439;BME280;40347;53.848;27.498;2023-02-19T01:26:29;996.8;;;3.4;64.1
54439;BME280;40347;53.848;27.498;2023-02-19T01:31:09;996.8;;;3.4;64.3
54439;BME280;40347;53.848;27.498;2023-02-19T01:36:20;996.8;;;3.5;64.3
54439;BME280;40347;53.848;27.498;2023-02-19T01:41:21;996.8;;;3.5;64.1
54439;BME280;40347;53.848;27.498;2023-02-19T01:46:16;996.9;;;3.6;64
54439;BME280;40347;53.848;27.498;2023-02-19T01:51:09;996.8;;;3.5;64.2
54439;BME280;40347;53.848;27.498;2023-02-19T01:56:20;996.9;;;3.6;64.3
54439;BME280;40347;53.848;27.498;2023-02-19T02:01:08;996.9;;;3.7;64.1
54439;BME280;40347;53.848;27.498;2023-02-19T02:06:10;996.9;;;3.7;63.9
54439;BME280;40347;53.848;27.498;2023-02-19T02:11:08;996.8;;;3.7;63.8
54439;BME280;40347;53.848;27.498;2023-02-19T02:16:12;996.8;;;3.7;63.8
54439;BME280;40347;53.848;27.498;2023-02-19T02:21:28;996.7;;;3.5;63.8
54439;BME280;40347;53.848;27.498;2023-02-19T02:26:24;996.8;;;3.2;64.4
54439;BME280;40347;53.848;27.498;2023-02-19T02:31:08;996.9;;;3;64.9
54439;BME280;40347;53.848;27.498;2023-02-19T02:36:09;996.9;;;2.9;65.6
54439;BME280;40347;53.848;27.498;2023-02-19T02:41:31;997;;;2.9;65.8
54439;BME280;40347;53.848;27.498;2023-02-19T02:46:09;997;;;3.2;65.3
54439;BME280;40347;53.848;27.498;2023-02-19T02:51:09;997.1;;;3.3;65
54439;BME280;40347;53.848;27.498;2023-02-19T02:56:14;997.1;;;3.4;64.8
54439;BME280;40347;53.848;27.498;2023-02-19T03:01:22;997;;;3.4;64.7
54439;BME280;40347;53.848;27.498;2023-02-19T03:06:28;997.1;;;3.5;64.8
54439;BME280;40347;53.848;27.498;2023-02-19T03:11:14;997.1;;;3.4;64.8
54439;BME280;40347;53.848;27.498;2023-02-19T03:16:09;997.1;;;3.3;65.2
54439;BME280;40347;53.848;27.498;2023-02-19T03:21:08;997.2;;;3.3;65.5
54439;BME280;40347;53.848;27.498;2023-02-19T03:26:08;997.2;;;3.3;65.4
54439;BME280;40347;53.848;27.498;2023-02-19T03:31:08;997.3;;;3.3;65.4
54439;BME280;40347;53.848;27.498;2023-02-19T03:36:14;997.3;;;3.3;65.4
54439;BME280;40347;53.848;27.498;2023-02-19T03:41:09;997.4;;;3.3;65.4
54439;BME280;40347;53.848;27.498;2023-02-19T03:46:35;997.5;;;3.4;65.3
54439;BME280;40347;53.848;27.498;2023-02-19T03:51:18;997.5;;;3.3;65.3
54439;BME280;40347;53.848;27.498;2023-02-19T03:56:08;997.6;;;3.3;65.2
54439;BME280;40347;53.848;27.498;2023-02-19T04:01:09;997.6;;;3.2;65.3
54439;BME280;40347;53.848;27.498;2023-02-19T04:06:42;997.6;;;3.2;65.3
54439;BME280;40347;53.848;27.498;2023-02-19T04:11:32;997.5;;;3.1;65.4
54439;BME280;40347;53.848;27.498;2023-02-19T04:16:09;997.5;;;3;65.5
54439;BME280;40347;53.848;27.498;2023-02-19T04:21:22;997.5;;;2.9;65.8
54439;BME280;40347;53.848;27.498;2023-02-19T04:26:08;997.5;;;2.8;66.1
54439;BME280;40347;53.848;27.498;2023-02-19T04:31:56;997.5;;;2.7;66.4
54439;BME280;40347;53.848;27.498;2023-02-19T04:36:34;997.5;;;2.6;66.4
54439;BME280;40347;53.848;27.498;2023-02-19T04:41:22;997.5;;;2.5;66.5
54439;BME280;40347;53.848;27.498;2023-02-19T04:46:40;997.5;;;2.5;66.6
54439;BME280;40347;53.848;27.498;2023-02-19T04:51:16;997.5;;;2.5;66.6
54439;BME280;40347;53.848;27.498;2023-02-19T04:56:08;997.6;;;2.3;66.7
54439;BME280;40347;53.848;27.498;2023-02-19T05:01:22;997.6;;;2.3;67
54439;BME280;40347;53.848;27.498;2023-02-19T05:06:08;997.7;;;2.3;67.3
54439;BME280;40347;53.848;27.498;2023-02-19T05:11:20;997.7;;;2.2;67.6
54439;BME280;40347;53.848;27.498;2023-02-19T05:16:09;997.7;;;2.3;67.5
54439;BME280;40347;53.848;27.498;2023-02-19T05:21:20;997.7;;;2.4;67.5
54439;BME280;40347;53.848;27.498;2023-02-19T05:26:20;997.7;;;2.5;67.1
54439;BME280;40347;53.848;27.498;2023-02-19T05:31:14;997.7;;;2.7;66.8
54439;BME280;40347;53.848;27.498;2023-02-19T05:36:28;997.7;;;2.8;66.3
54439;BME280;40347;53.848;27.498;2023-02-19T05:41:09;997.7;;;2.8;66
54439;BME280;40347;53.848;27.498;2023-02-19T05:46:08;997.6;;;2.8;65.9
54439;BME280;40347;53.848;27.498;2023-02-19T05:51:23;997.6;;;2.9;65.8
54439;BME280;40347;53.848;27.498;2023-02-19T05:56:16;997.7;;;3;65.7
54439;BME280;40347;53.848;27.498;2023-02-19T06:01:13;997.7;;;3.1;65.7
54439;BME280;40347;53.848;27.498;2023-02-19T06:06:22;997.7;;;3.2;65.5
54439;BME280;40347;53.848;27.498;2023-02-19T06:11:08;997.7;;;3.3;65.3
54439;BME280;40347;53.848;27.498;2023-02-19T06:16:08;997.8;;;3.4;65
54439;BME280;40347;53.848;27.498;2023-02-19T06:21:09;997.8;;;3.5;65.1
54439;BME280;40347;53.848;27.498;2023-02-19T06:26:23;997.7;;;3.4;65.7
54439;BME280;40347;53.848;27.498;2023-02-19T06:31:14;997.8;;;3.4;66
54439;BME280;40347;53.848;27.498;2023-02-19T06:36:20;997.7;;;3.3;65.8
54439;BME280;40347;53.848;27.498;2023-02-19T06:41:08;997.7;;;3.4;65.7
54439;BME280;40347;53.848;27.498;2023-02-19T06:46:09;997.7;;;3.4;65.5
54439;BME280;40347;53.848;27.498;2023-02-19T06:51:28;997.7;;;3.5;65.3
54439;BME280;40347;53.848;27.498;2023-02-19T06:56:23;997.6;;;3.5;64.9
54439;BME280;40347;53.848;27.498;2023-02-19T07:01:34;997.8;;;3.5;64.9
54439;BME280;40347;53.848;27.498;2023-02-19T07:06:08;997.7;;;3.7;64.5
54439;BME280;40347;53.848;27.498;2023-02-19T07:11:34;997.7;;;3.9;63.7
54439;BME280;40347;53.848;27.498;2023-02-19T07:16:08;997.6;;;3.8;63.2
54439;BME280;40347;53.848;27.498;2023-02-19T07:21:16;997.7;;;4;63.2
54439;BME280;40347;53.848;27.498;2023-02-19T07:26:08;997.7;;;4.2;62.6
54439;BME280;40347;53.848;27.498;2023-02-19T07:31:08;997.6;;;4.4;62.3
54439;BME280;40347;53.848;27.498;2023-02-19T07:36:40;997.6;;;4.6;62
54439;BME280;40347;53.848;27.498;2023-02-19T07:41:14;997.7;;;4.4;62.6
54439;BME280;40347;53.848;27.498;2023-02-19T07:46:09;997.6;;;4.2;62.9
54439;BME280;40347;53.848;27.498;2023-02-19T07:51:22;997.6;;;3.9;63.7
54439;BME280;40347;53.848;27.498;2023-02-19T07:56:09;997.8;;;3.5;67.1
54439;BME280;40347;53.848;27.498;2023-02-19T08:01:09;997.8;;;3.3;70
54439;BME280;40347;53.848;27.498;2023-02-19T08:06:08;997.8;;;3.4;69.2
54439;BME280;40347;53.848;27.498;2023-02-19T08:11:08;997.9;;;3.5;65.8
54439;BME280;40347;53.848;27.498;2023-02-19T08:16:22;997.9;;;3.7;64.7
54439;BME280;40347;53.848;27.498;2023-02-19T08:21:08;998;;;3.9;63.9
54439;BME280;40347;53.848;27.498;2023-02-19T08:26:08;997.9;;;3.9;62.3
54439;BME280;40347;53.848;27.498;2023-02-19T08:31:09;997.8;;;4.1;61.6
54439;BME280;40347;53.848;27.498;2023-02-19T08:36:56;997.8;;;4.3;60.2
54439;BME280;40347;53.848;27.498;2023-02-19T08:41:34;997.9;;;4.5;59.6
54439;BME280;40347;53.848;27.498;2023-02-19T08:46:08;997.8;;;4.7;57.7
54439;BME280;40347;53.848;27.498;2023-02-19T08:51:08;997.9;;;5;57.1
54439;BME280;40347;53.848;27.498;2023-02-19T08:56:08;997.9;;;5.3;56.4
54439;BME280;40347;53.848;27.498;2023-02-19T09:01:08;997.9;;;5.4;54.4
54439;BME280;40347;53.848;27.498;2023-02-19T09:06:22;997.8;;;5.1;52.5
54439;BME280;40347;53.848;27.498;2023-02-19T09:11:08;997.9;;;5.1;53.8
54439;BME280;40347;53.848;27.498;2023-02-19T09:16:20;997.9;;;5;53.8
54439;BME280;40347;53.848;27.498;2023-02-19T09:21:41;998;;;4.6;53.8
54439;BME280;40347;53.848;27.498;2023-02-19T09:26:08;998;;;4.4;52.8
54439;BME280;40347;53.848;27.498;2023-02-19T09:31:34;998;;;4.5;53.4
54439;BME280;40347;53.848;27.498;2023-02-19T09:36:22;998;;;4.6;52.3
54439;BME280;40347;53.848;27.498;2023-02-19T09:41:11;998;;;4.8;52.4
54439;BME280;40347;53.848;27.498;2023-02-19T09:46:23;998.1;;;4.7;51.8
54439;BME280;40347;53.848;27.498;2023-02-19T09:51:16;998;;;4.9;52
54439;BME280;40347;53.848;27.498;2023-02-19T09:56:22;997.9;;;5;50.3
54439;BME280;40347;53.848;27.498;2023-02-19T10:01:09;998.1;;;5.1;50.4
54439;BME280;40347;53.848;27.498;2023-02-19T10:06:20;998.1;;;5.1;49.7
54439;BME280;40347;53.848;27.498;2023-02-19T10:11:22;998.1;;;5.1;50.1
54439;BME280;40347;53.848;27.498;2023-02-19T10:16:30;998;;;5.6;50.1
54439;BME280;40347;53.848;27.498;2023-02-19T10:21:30;997.9;;;6.1;48.5
54439;BME280;40347;53.848;27.498;2023-02-19T10:26:34;998;;;6.2;47.1
54439;BME280;40347;53.848;27.498;2023-02-19T10:31:21;998;;;6;48.4
54439;BME280;40347;53.848;27.498;2023-02-19T10:36:30;998;;;5.5;47.6
54439;BME280;40347;53.848;27.498;2023-02-19T10:41:11;998.1;;;5.2;48
54439;BME280;40347;53.848;27.498;2023-02-19T10:46:21;998;;;5;48.1
54439;BME280;40347;53.848;27.498;2023-02-19T10:51:35;998;;;4.7;48.9
54439;BME280;40347;53.848;27.498;2023-02-19T10:56:09;998;;;4.5;48.6
54439;BME280;40347;53.848;27.498;2023-02-19T11:01:10;997.9;;;4.4;49.2
54439;BME280;40347;53.848;27.498;2023-02-19T11:06:08;997.9;;;4.4;49.3
54439;BME280;40347;53.848;27.498;2023-02-19T11:11:21;997.9;;;4.4;49.6
54439;BME280;40347;53.848;27.498;2023-02-19T11:16:08;998;;;4.4;49.7
54439;BME280;40347;53.848;27.498;2023-02-19T11:21:34;998.1;;;4.6;50.2
54439;BME280;40347;53.848;27.498;2023-02-19T11:26:14;998;;;5;49.5
54439;BME280;40347;53.848;27.498;2023-02-19T11:31:23;998;;;5.5;49.1
54439;BME280;40347;53.848;27.498;2023-02-19T11:36:23;997.9;;;6.1;47.1
54439;BME280;40347;53.848;27.498;2023-02-19T11:41:22;997.9;;;6.7;46.5
54439;BME280;40347;53.848;27.498;2023-02-19T11:46:21;997.8;;;7.3;45.4
54439;BME280;40347;53.848;27.498;2023-02-19T11:51:13;997.8;;;7.6;43.5
54439;BME280;40347;53.848;27.498;2023-02-19T11:56:31;997.8;;;7.6;44
54439;BME280;40347;53.848;27.498;2023-02-19T12:01:47;997.8;;;7.7;44.3
54439;BME280;40347;53.848;27.498;2023-02-19T12:06:35;997.8;;;7.9;44.1
54439;BME280;40347;53.848;27.498;2023-02-19T12:11:45;997.8;;;7.9;42.1
54439;BME280;40347;53.848;27.498;2023-02-19T12:16:30;997.8;;;8.3;42.5
54439;BME280;40347;53.848;27.498;2023-02-19T12:21:19;997.8;;;8.3;40.4
54439;BME280;40347;53.848;27.498;2023-02-19T12:26:09;997.9;;;7.7;42.7
54439;BME280;40347;53.848;27.498;2023-02-19T12:31:13;998.1;;;7.2;43.2
54439;BME280;40347;53.848;27.498;2023-02-19T12:36:21;998.1;;;6.5;44
54439;BME280;40347;53.848;27.498;2023-02-19T12:41:26;998.1;;;5.4;45.3
54439;BME280;40347;53.848;27.498;2023-02-19T12:46:17;998.2;;;4.6;48.2
54439;BME280;40347;53.848;27.498;2023-02-19T12:51:09;998.3;;;4.1;49
54439;BME280;40347;53.848;27.498;2023-02-19T12:56:09;998.2;;;3.8;49.5
54439;BME280;40347;53.848;27.498;2023-02-19T13:01:21;998.1;;;3.6;49.4
54439;BME280;40347;53.848;27.498;2023-02-19T13:06:19;998.2;;;3.2;50.9
54439;BME280;40347;53.848;27.498;2023-02-19T13:11:09;998.2;;;2.8;51.7
54439;BME280;40347;53.848;27.498;2023-02-19T13:16:09;998.3;;;2.7;52
54439;BME280;40347;53.848;27.498;2023-02-19T13:21:08;998.4;;;2.8;52.3
54439;BME280;40347;53.848;27.498;2023-02-19T13:26:12;998.5;;;3.3;51.4
54439;BME280;40347;53.848;27.498;2023-02-19T13:31:13;998.4;;;3.6;50
54439;BME280;40347;53.848;27.498;2023-02-19T13:36:09;998.6;;;3.7;48.8
54439;BME280;40347;53.848;27.498;2023-02-19T13:41:16;998.5;;;3.9;49.4
54439;BME280;40347;53.848;27.498;2023-02-19T13:46:08;998.4;;;3.9;49.1
54439;BME280;40347;53.848;27.498;2023-02-19T13:56:38;998.4;;;2.8;51.7
54439;BME280;40347;53.848;27.498;2023-02-19T14:01:08;998.4;;;2.6;51.8
54439;BME280;40347;53.848;27.498;2023-02-19T14:06:08;998.4;;;2.4;51.4
54439;BME280;40347;53.848;27.498;2023-02-19T14:11:08;998.4;;;2.5;51
54439;BME280;40347;53.848;27.498;2023-02-19T14:16:13;998.5;;;2.6;50.6
54439;BME280;40347;53.848;27.498;2023-02-19T14:21:33;998.4;;;2.7;49.7
54439;BME280;40347;53.848;27.498;2023-02-19T14:26:16;998.4;;;2.5;48.9
54439;BME280;40347;53.848;27.498;2023-02-19T14:31:09;998.5;;;2.5;49
54439;BME280;40347;53.848;27.498;2023-02-19T14:36:37;998.6;;;2.3;48.9
54439;BME280;40347;53.848;27.498;2023-02-19T14:41:20;998.6;;;2.2;49.5
54439;BME280;40347;53.848;27.498;2023-02-19T14:46:23;998.6;;;2.2;49.8
54439;BME280;40347;53.848;27.498;2023-02-19T14:51:10;998.7;;;2.1;49.8
54439;BME280;40347;53.848;27.498;2023-02-19T14:56:21;998.8;;;2;49.4
54439;BME280;40347;53.848;27.498;2023-02-19T15:01:23;998.9;;;2;49.4
54439;BME280;40347;53.848;27.498;2023-02-19T15:06:34;998.9;;;2;49.1
54439;BME280;40347;53.848;27.498;2023-02-19T15:11:42;999;;;1.8;49.7
54439;BME280;40347;53.848;27.498;2023-02-19T15:16:08;999;;;1.7;50.6
54439;BME280;40347;53.848;27.498;2023-02-19T15:21:11;999.1;;;1.5;51.5
54439;BME280;40347;53.848;27.498;2023-02-19T15:26:13;999.1;;;1.5;51.6
54439;BME280;40347;53.848;27.498;2023-02-19T15:31:20;999.1;;;1.5;51.7
54439;BME280;40347;53.848;27.498;2023-02-19T15:36:23;999.2;;;1.6;52
54439;BME280;40347;53.848;27.498;2023-02-19T15:41:17;999.2;;;1.6;52.1
54439;BME280;40347;53.848;27.498;2023-02-19T15:46:08;999.2;;;1.8;52.1
54439;BME280;40347;53.848;27.498;2023-02-19T15:51:37;999.3;;;1.8;52
54439;BME280;40347;53.848;27.498;2023-02-19T15:56:08;999.4;;;1.8;52.1
54439;BME280;40347;53.848;27.498;2023-02-19T16:01:11;999.4;;;1.7;52.4
54439;BME280;40347;53.848;27.498;2023-02-19T16:06:16;999.4;;;1.5;52.9
54439;BME280;40347;53.848;27.498;2023-02-19T16:11:26;999.4;;;1.6;53
54439;BME280;40347;53.848;27.498;2023-02-19T16:16:21;999.4;;;1.5;53.1
54439;BME280;40347;53.848;27.498;2023-02-19T16:21:16;999.5;;;1.4;53.5
54439;BME280;40347;53.848;27.498;2023-02-19T16:26:08;999.5;;;1.5;53.6
54439;BME280;40347;53.848;27.498;2023-02-19T16:31:28;999.6;;;1.5;53.7
54439;BME280;40347;53.848;27.498;2023-02-19T16:36:23;999.6;;;1.5;54
54439;BME280;40347;53.848;27.498;2023-02-19T16:41:22;999.6;;;1.5;53.9
54439;BME280;40347;53.848;27.498;2023-02-19T16:46:28;999.6;;;1.5;54
54439;BME280;40347;53.848;27.498;2023-02-19T16:51:48;999.6;;;1.4;54.1
54439;BME280;40347;53.848;27.498;2023-02-19T16:56:08;999.6;;;1.4;54.2
54439;BME280;40347;53.848;27.498;2023-02-19T17:01:08;999.6;;;1.6;54
54439;BME280;40347;53.848;27.498;2023-02-19T17:06:12;999.6;;;1.7;53.7
54439;BME280;40347;53.848;27.498;2023-02-19T17:11:20;999.6;;;1.7;53.6
54439;BME280;40347;53.848;27.498;2023-02-19T17:16:23;999.7;;;1.7;53.5
54439;BME280;40347;53.848;27.498;2023-02-19T17:21:09;999.6;;;1.7;53.4
54439;BME280;40347;53.848;27.498;2023-02-19T17:26:08;999.7;;;1.7;53.4
54439;BME280;40347;53.848;27.498;2023-02-19T17:31:22;999.8;;;1.8;53.4
54439;BME280;40347;53.848;27.498;2023-02-19T17:36:09;999.8;;;1.8;53.3
54439;BME280;40347;53.848;27.498;2023-02-19T17:41:08;999.9;;;1.8;53.1
54439;BME280;40347;53.848;27.498;2023-02-19T17:46:08;999.8;;;1.7;53
54439;BME280;40347;53.848;27.498;2023-02-19T17:51:22;999.9;;;1.8;53
54439;BME280;40347;53.848;27.498;2023-02-19T17:56:09;999.9;;;2;52.9
54439;BME280;40347;53.848;27.498;2023-02-19T18:01:20;999.9;;;2.1;52.6
54439;BME280;40347;53.848;27.498;2023-02-19T18:06:22;999.9;;;2.2;52.6
54439;BME280;40347;53.848;27.498;2023-02-19T18:11:28;999.8;;;2.2;52.2
54439;BME280;40347;53.848;27.498;2023-02-19T18:16:34;999.8;;;2.2;52.2
54439;BME280;40347;53.848;27.498;2023-02-19T18:21:08;999.8;;;2.2;52.3
54439;BME280;40347;53.848;27.498;2023-02-19T18:26:20;999.8;;;2.2;52.2
54439;BME280;40347;53.848;27.498;2023-02-19T18:31:34;999.9;;;2.2;52.3
54439;BME280;40347;53.848;27.498;2023-02-19T18:36:30;999.9;;;2.1;52.4
54439;BME280;40347;53.848;27.498;2023-02-19T18:41:22;999.9;;;2;52.6
54439;BME280;40347;53.848;27.498;2023-02-19T18:46:22;999.9;;;1.9;52.7
54439;BME280;40347;53.848;27.498;2023-02-19T18:51:28;999.9;;;1.8;52.8
54439;BME280;40347;53.848;27.498;2023-02-19T18:56:20;999.9;;;1.7;53
54439;BME280;40347;53.848;27.498;2023-02-19T19:01:08;999.9;;;1.7;53.1
54439;BME280;40347;53.848;27.498;2023-02-19T19:06:34;999.9;;;1.5;53.2
54439;BME280;40347;53.848;27.498;2023-02-19T19:11:36;1000;;;1.6;53.3
54439;BME280;40347;53.848;27.498;2023-02-19T19:16:08;1000;;;1.6;53.3
54439;BME280;40347;53.848;27.498;2023-02-19T19:21:36;1000.1;;;1.5;53.5
54439;BME280;40347;53.848;27.498;2023-02-19T19:26:30;1000.1;;;1.4;53.7
54439;BME280;40347;53.848;27.498;2023-02-19T19:31:08;1000.2;;;1.3;53.9
54439;BME280;40347;53.848;27.498;2023-02-19T19:36:36;1000.2;;;1.3;54.1
54439;BME280;40347;53.848;27.498;2023-02-19T19:41:20;1000.3;;;1.3;54.5
54439;BME280;40347;53.848;27.498;2023-02-19T19:46:08;1000.3;;;1.1;55.1
54439;BME280;40347;53.848;27.498;2023-02-19T19:51:30;1000.3;;;1.3;54.9
54439;BME280;40347;53.848;27.498;2023-02-19T19:56:20;1000.3;;;1.4;54.9
54439;BME280;40347;53.848;27.498;2023-02-19T20:01:22;1000.4;;;1.4;54.9
54439;BME280;40347;53.848;27.498;2023-02-19T20:06:08;1000.4;;;1.6;54.7
54439;BME280;40347;53.848;27.498;2023-02-19T20:11:08;1000.4;;;1.7;54.5
54439;BME280;40347;53.848;27.498;2023-02-19T20:16:17;1000.5;;;1.7;54.6
54439;BME280;40347;53.848;27.498;2023-02-19T20:21:22;1000.6;;;1.6;55
54439;BME280;40347;53.848;27.498;2023-02-19T20:26:08;1000.6;;;1.8;55.1
54439;BME280;40347;53.848;27.498;2023-02-19T20:31:08;1000.6;;;1.9;54.9
54439;BME280;40347;53.848;27.498;2023-02-19T20:36:08;1000.7;;;1.7;55.1
54439;BME280;40347;53.848;27.498;2023-02-19T20:41:08;1000.7;;;1.6;55.7
54439;BME280;40347;53.848;27.498;2023-02-19T20:46:20;1000.7;;;1.7;55.6
54439;BME280;40347;53.848;27.498;2023-02-19T20:51:08;1000.7;;;1.8;55.3
54439;BME280;40347;53.848;27.498;2023-02-19T20:56:18;1000.7;;;1.8;55.1
54439;BME280;40347;53.848;27.498;2023-02-19T21:01:36;1000.8;;;1.8;55.2
54439;BME280;40347;53.848;27.498;2023-02-19T21:06:08;1000.8;;;1.8;55.1
54439;BME280;40347;53.848;27.498;2023-02-19T21:11:08;1000.9;;;1.8;55
54439;BME280;40347;53.848;27.498;2023-02-19T21:16:22;1000.9;;;1.8;55
54439;BME280;40347;53.848;27.498;2023-02-19T21:21:08;1000.9;;;1.7;55
54439;BME280;40347;53.848;27.498;2023-02-19T21:26:22;1001.1;;;1.7;55.3
54439;BME280;40347;53.848;27.498;2023-02-19T21:31:14;1001;;;1.6;55.4
54439;BME280;40347;53.848;27.498;2023-02-19T21:36:18;1001.1;;;1.5;55.4
54439;BME280;40347;53.848;27.498;2023-02-19T21:41:08;1001.1;;;1.4;55.6
54439;BME280;40347;53.848;27.498;2023-02-19T21:46:08;1001.1;;;1.5;55.5
54439;BME280;40347;53.848;27.498;2023-02-19T21:51:26;1001.2;;;1.6;55.4
54439;BME280;40347;53.848;27.498;2023-02-19T21:56:19;1001.2;;;1.7;55.4
54439;BME280;40347;53.848;27.498;2023-02-19T22:01:08;1001.3;;;1.8;55.2
54439;BME280;40347;53.848;27.498;2023-02-19T22:06:08;1001.3;;;1.8;55.2
54439;BME280;40347;53.848;27.498;2023-02-19T22:11:08;1001.4;;;1.7;55.2
54439;BME280;40347;53.848;27.498;2023-02-19T22:16:22;1001.4;;;1.7;55.3
54439;BME280;40347;53.848;27.498;2023-02-19T22:21:16;1001.5;;;1.6;55.4
54439;BME280;40347;53.848;27.498;2023-02-19T22:26:32;1001.5;;;1.8;55.2
54439;BME280;40347;53.848;27.498;2023-02-19T22:31:08;1001.5;;;1.9;55
54439;BME280;40347;53.848;27.498;2023-02-19T22:36:19;1001.5;;;1.8;54.9
54439;BME280;40347;53.848;27.498;2023-02-19T22:41:40;1001.5;;;1.9;54.9
54439;BME280;40347;53.848;27.498;2023-02-19T22:46:30;1001.5;;;1.9;54.8
54439;BME280;40347;53.848;27.498;2023-02-19T22:51:32;1001.6;;;1.8;55
54439;BME280;40347;53.848;27.498;2023-02-19T22:56:08;1001.5;;;1.8;55.1
54439;BME280;40347;53.848;27.498;2023-02-19T23:01:08;1001.5;;;1.9;54.9
54439;BME280;40347;53.848;27.498;2023-02-19T23:06:08;1001.6;;;1.9;55
54439;BME280;40347;53.848;27.498;2023-02-19T23:11:42;1001.6;;;2.1;54.9
54439;BME280;40347;53.848;27.498;2023-02-19T23:16:22;1001.5;;;2.1;54.4
54439;BME280;40347;53.848;27.498;2023-02-19T23:21:22;1001.6;;;1.9;54.2
54439;BME280;40347;53.848;27.498;2023-02-19T23:26:08;1001.6;;;1.7;54.7
54439;BME280;40347;53.848;27.498;2023-02-19T23:31:36;1001.7;;;1.8;54.7
54439;BME280;40347;53.848;27.498;2023-02-19T23:36:14;1001.7;;;1.7;54.5
54439;BME280;40347;53.848;27.498;2023-02-19T23:41:08;1001.6;;;1.8;54.6
54439;BME280;40347;53.848;27.498;2023-02-19T23:46:22;1001.7;;;1.7;54.4
54439;BME280;40347;53.848;27.498;2023-02-19T23:51:38;1001.7;;;1.6;54.7
54439;BME280;40347;53.848;27.498;2023-02-19T23:56:08;1001.8;;;1.6;54.7
